createdAt,value
2023-09-15T00:01:00.986Z,0.60
2023-09-15T00:03:45.717Z,0.62
2023-09-15T00:06:25.405Z,0.82
2023-09-15T00:09:05.935Z,0.68
2023-09-15T00:11:50.069Z,0.60
2023-09-15T00:14:29.723Z,0.74
2023-09-15T00:17:10.482Z,0.61
2023-09-15T00:19:54.976Z,0.62
2023-09-15T00:22:34.281Z,0.71
2023-09-15T00:25:14.043Z,0.67
2023-09-15T00:27:54.057Z,0.65
2023-09-15T00:30:36.511Z,0.75
2023-09-15T00:33:15.905Z,0.71
2023-09-15T00:36:00.370Z,0.70
2023-09-15T00:38:39.698Z,0.68
2023-09-15T00:41:19.175Z,0.64
2023-09-15T00:43:59.115Z,0.55
2023-09-15T00:46:38.685Z,0.58
2023-09-15T00:49:18.380Z,0.70
2023-09-15T00:52:03.294Z,0.58
2023-09-15T00:54:44.104Z,0.58
2023-09-15T00:57:24.484Z,0.55
2023-09-15T01:00:05.005Z,0.57
2023-09-15T01:02:44.989Z,0.58
2023-09-15T01:05:27.860Z,0.58
2023-09-15T01:08:13.008Z,0.79
2023-09-15T01:10:52.462Z,0.63
2023-09-15T01:13:31.908Z,0.78
2023-09-15T01:16:19.936Z,0.63
2023-09-15T01:19:10.375Z,0.64
2023-09-15T01:22:22.787Z,0.64
2023-09-15T01:25:38.592Z,0.61
2023-09-15T01:28:50.212Z,0.64
2023-09-15T01:31:35.510Z,0.70
2023-09-15T01:34:15.732Z,0.73
2023-09-15T01:36:56.377Z,0.82
2023-09-15T01:39:35.739Z,0.83
2023-09-15T01:42:15.227Z,0.69
2023-09-15T01:44:54.786Z,0.66
2023-09-15T01:47:41.842Z,0.72
2023-09-15T01:50:23.022Z,0.68
2023-09-15T01:53:08.636Z,0.68
2023-09-15T01:55:51.439Z,0.64
2023-09-15T01:58:30.940Z,0.74
2023-09-15T02:01:10.408Z,0.74
2023-09-15T02:03:54.888Z,0.72
2023-09-15T02:06:34.322Z,0.83
2023-09-15T02:09:14.228Z,0.68
2023-09-15T02:11:53.784Z,0.79
2023-09-15T02:14:34.619Z,0.82
2023-09-15T02:17:17.495Z,0.79
2023-09-15T02:20:01.926Z,0.89
2023-09-15T02:22:41.373Z,0.86
2023-09-15T02:25:20.778Z,0.97
2023-09-15T02:28:00.222Z,0.96
2023-09-15T02:30:39.634Z,1.04
2023-09-15T02:33:19.048Z,0.90
2023-09-15T02:36:03.827Z,0.88
2023-09-15T02:38:43.187Z,0.99
2023-09-15T02:41:22.533Z,1.10
2023-09-15T02:44:01.861Z,0.97
2023-09-15T02:46:41.356Z,0.73
2023-09-15T02:49:20.705Z,0.76
2023-09-15T02:52:07.386Z,0.78
2023-09-15T02:54:46.691Z,0.92
2023-09-15T02:57:26.056Z,0.83
2023-09-15T03:00:06.701Z,0.94
2023-09-15T03:02:47.301Z,1.08
2023-09-15T03:05:28.001Z,1.23
2023-09-15T03:08:13.197Z,1.16
2023-09-15T03:10:52.544Z,1.15
2023-09-15T03:13:31.827Z,1.21
2023-09-15T03:16:19.241Z,1.35
2023-09-15T03:18:58.817Z,1.42
2023-09-15T03:21:38.204Z,1.80
2023-09-15T03:24:22.655Z,2.40
2023-09-15T03:27:02.008Z,3.18
2023-09-15T03:29:41.314Z,2.50
2023-09-15T03:32:20.699Z,2.54
2023-09-15T03:35:00.035Z,2.61
2023-09-15T03:37:40.443Z,2.44
2023-09-15T03:40:26.852Z,2.77
2023-09-15T03:43:06.504Z,2.58
2023-09-15T03:45:45.856Z,2.64
2023-09-15T03:48:25.281Z,2.90
2023-09-15T03:51:04.657Z,2.72
2023-09-15T03:53:44.245Z,2.92
2023-09-15T03:56:28.690Z,3.23
2023-09-15T03:59:09.145Z,3.13
2023-09-15T04:01:49.858Z,2.93
2023-09-15T04:04:29.200Z,2.46
2023-09-15T04:07:08.637Z,2.47
2023-09-15T04:09:48.163Z,2.52
2023-09-15T04:12:32.596Z,2.87
2023-09-15T04:15:13.590Z,2.57
2023-09-15T04:17:53.251Z,2.51
2023-09-15T04:20:45.353Z,2.59
2023-09-15T04:23:26.274Z,2.63
2023-09-15T04:26:06.435Z,2.17
2023-09-15T04:28:50.822Z,2.46
2023-09-15T04:31:30.189Z,1.94
2023-09-15T04:34:09.670Z,1.49
2023-09-15T04:36:49.126Z,1.43
2023-09-15T04:39:30.088Z,1.68
2023-09-15T04:42:09.513Z,1.45
2023-09-15T04:44:54.029Z,1.84
2023-09-15T04:47:43.063Z,1.89
2023-09-15T04:50:22.464Z,2.09
2023-09-15T04:53:04.931Z,1.96
2023-09-15T04:55:44.720Z,2.01
2023-09-15T04:58:24.128Z,2.07
2023-09-15T05:01:12.624Z,2.04
2023-09-15T05:03:52.081Z,2.09
2023-09-15T05:06:31.540Z,2.18
2023-09-15T05:09:12.553Z,2.14
2023-09-15T05:11:54.900Z,2.05
2023-09-15T05:14:35.135Z,2.29
2023-09-15T05:17:19.550Z,2.23
2023-09-15T05:19:59.508Z,2.07
2023-09-15T05:22:38.916Z,2.08
2023-09-15T05:25:18.304Z,2.14
2023-09-15T05:27:57.674Z,2.19
2023-09-15T05:30:40.375Z,2.13
2023-09-15T05:33:24.774Z,2.53
2023-09-15T05:36:04.748Z,2.40
2023-09-15T05:38:44.056Z,2.42
2023-09-15T05:41:23.532Z,2.21
2023-09-15T05:44:02.853Z,2.26
2023-09-15T05:46:42.393Z,2.22
2023-09-15T05:49:29.515Z,1.89
2023-09-15T05:52:10.342Z,1.93
2023-09-15T05:54:49.750Z,1.70
2023-09-15T05:57:29.093Z,2.09
2023-09-15T06:00:08.433Z,1.77
2023-09-15T06:02:47.834Z,2.03
2023-09-15T06:05:32.323Z,2.06
2023-09-15T06:08:12.079Z,2.21
2023-09-15T06:10:51.563Z,2.39
2023-09-15T06:13:30.978Z,2.39
2023-09-15T06:16:11.128Z,2.34
2023-09-15T06:18:51.380Z,2.35
2023-09-15T06:21:35.831Z,2.35
2023-09-15T06:24:15.288Z,2.34
2023-09-15T06:26:57.308Z,1.99
2023-09-15T06:29:36.689Z,2.28
2023-09-15T06:32:16.048Z,2.20
2023-09-15T06:34:55.448Z,2.23
2023-09-15T06:37:39.871Z,2.30
2023-09-15T06:40:19.842Z,2.19
2023-09-15T06:42:59.319Z,1.90
2023-09-15T06:45:38.810Z,2.01
2023-09-15T06:48:18.163Z,1.96
2023-09-15T06:50:57.491Z,2.03
2023-09-15T06:53:41.889Z,2.18
2023-09-15T06:56:21.320Z,1.91
2023-09-15T06:59:00.659Z,1.80
2023-09-15T07:01:41.732Z,1.76
2023-09-15T07:04:21.262Z,1.77
2023-09-15T07:07:00.776Z,1.79
2023-09-15T07:09:45.328Z,1.81
2023-09-15T07:12:24.722Z,1.87
2023-09-15T07:15:06.414Z,1.71
2023-09-15T07:17:45.905Z,1.70
2023-09-15T07:20:25.358Z,1.55
2023-09-15T07:23:05.500Z,1.49
2023-09-15T07:25:52.869Z,1.37
2023-09-15T07:28:32.444Z,1.52
2023-09-15T07:31:12.493Z,1.39
2023-09-15T07:33:51.947Z,1.35
2023-09-15T07:36:31.502Z,1.45
2023-09-15T07:39:11.781Z,1.19
2023-09-15T07:41:56.188Z,1.24
2023-09-15T07:44:35.534Z,1.26
2023-09-15T07:47:17.028Z,1.28
2023-09-15T07:49:56.373Z,1.17
2023-09-15T07:52:35.981Z,1.20
2023-09-15T07:55:15.836Z,1.35
2023-09-15T07:58:00.349Z,1.38
2023-09-15T08:00:40.306Z,1.37
2023-09-15T08:03:19.664Z,1.25
2023-09-15T08:06:01.699Z,1.15
2023-09-15T08:08:42.044Z,1.65
2023-09-15T08:11:21.574Z,1.51
2023-09-15T08:14:06.020Z,1.46
2023-09-15T08:16:45.577Z,1.32
2023-09-15T08:19:25.003Z,1.29
2023-09-15T08:22:04.472Z,1.53
2023-09-15T08:24:44.227Z,1.56
2023-09-15T08:27:23.810Z,1.31
2023-09-15T08:30:09.136Z,1.41
2023-09-15T08:32:48.829Z,1.41
2023-09-15T08:35:28.339Z,1.56
2023-09-15T08:38:10.085Z,1.46
2023-09-15T08:40:57.440Z,1.57
2023-09-15T08:43:37.251Z,1.37
2023-09-15T08:46:23.530Z,1.24
2023-09-15T08:49:07.731Z,1.34
2023-09-15T08:51:48.228Z,1.32
2023-09-15T08:54:28.101Z,1.21
2023-09-15T08:57:08.073Z,1.47
2023-09-15T08:59:48.851Z,1.25
2023-09-15T09:02:35.032Z,1.43
2023-09-15T09:05:14.932Z,1.22
2023-09-15T09:07:58.012Z,1.33
2023-09-15T09:10:37.537Z,1.30
2023-09-15T09:13:29.770Z,1.37
2023-09-15T09:16:13.199Z,1.24
2023-09-15T09:19:09.521Z,1.25
2023-09-15T09:21:49.022Z,1.19
2023-09-15T09:24:31.982Z,1.33
2023-09-15T09:27:17.075Z,1.07
2023-09-15T09:29:56.452Z,1.11
2023-09-15T09:32:35.938Z,1.26
2023-09-15T09:35:21.112Z,1.29
2023-09-15T09:38:02.165Z,1.25
2023-09-15T09:40:41.641Z,1.04
2023-09-15T09:43:21.868Z,1.12
2023-09-15T09:46:01.318Z,1.18
2023-09-15T09:48:42.649Z,1.19
2023-09-15T09:51:27.357Z,1.11
2023-09-15T09:54:06.985Z,1.16
2023-09-15T09:56:46.345Z,1.22
2023-09-15T09:59:25.718Z,1.15
2023-09-15T10:02:05.097Z,1.23
2023-09-15T10:04:44.437Z,1.20
2023-09-15T10:07:29.249Z,1.02
2023-09-15T10:10:09.479Z,1.15
2023-09-15T10:12:49.476Z,1.16
2023-09-15T10:15:29.769Z,1.20
2023-09-15T10:18:10.256Z,0.98
2023-09-15T10:20:52.136Z,0.99
2023-09-15T10:23:38.841Z,1.05
2023-09-15T10:26:18.337Z,1.15
2023-09-15T10:28:59.027Z,1.01
2023-09-15T10:31:38.994Z,1.04
2023-09-15T10:34:18.602Z,0.97
2023-09-15T10:36:58.855Z,0.88
2023-09-15T10:39:50.313Z,0.97
2023-09-15T10:42:29.705Z,0.90
2023-09-15T10:45:18.067Z,0.79
2023-09-15T10:48:05.684Z,0.73
2023-09-15T10:50:46.663Z,0.88
2023-09-15T10:53:27.568Z,0.89
2023-09-15T10:56:12.090Z,0.77
2023-09-15T10:58:52.773Z,0.73
2023-09-15T11:01:32.129Z,0.77
2023-09-15T11:04:12.824Z,0.75
2023-09-15T11:06:53.966Z,0.56
2023-09-15T11:09:33.356Z,0.83
2023-09-15T11:12:21.153Z,0.74
2023-09-15T11:15:07.229Z,0.77
2023-09-15T11:17:46.646Z,0.60
2023-09-15T11:20:26.289Z,0.68
2023-09-15T11:23:05.670Z,0.64
2023-09-15T11:25:45.037Z,0.66
2023-09-15T11:28:30.442Z,0.62
2023-09-15T11:31:14.455Z,0.65
2023-09-15T11:33:54.473Z,0.66
2023-09-15T11:36:37.724Z,0.55
2023-09-15T11:39:18.514Z,0.64
2023-09-15T11:41:59.149Z,0.66
2023-09-15T11:44:45.984Z,0.56
2023-09-15T11:47:26.035Z,0.54
2023-09-15T11:50:07.942Z,0.59
2023-09-15T11:52:48.375Z,0.49
2023-09-15T11:55:29.506Z,0.55
2023-09-15T11:58:09.077Z,0.62
2023-09-15T12:00:54.243Z,0.61
2023-09-15T12:03:34.236Z,0.53
2023-09-15T12:06:14.740Z,0.49
2023-09-15T12:08:55.725Z,0.44
2023-09-15T12:11:35.785Z,0.60
2023-09-15T12:14:15.196Z,0.56
2023-09-15T12:16:59.671Z,0.47
2023-09-15T12:19:43.417Z,0.52
2023-09-15T12:22:22.835Z,0.47
2023-09-15T12:25:02.340Z,0.39
2023-09-15T12:27:41.695Z,0.43
2023-09-15T12:30:23.655Z,0.56
2023-09-15T12:33:08.282Z,0.64
2023-09-15T12:35:47.693Z,0.41
2023-09-15T12:38:27.399Z,0.47
2023-09-15T12:41:06.770Z,0.53
2023-09-15T12:43:46.630Z,0.60
2023-09-15T12:46:26.438Z,0.47
2023-09-15T12:49:10.958Z,0.45
2023-09-15T12:51:50.289Z,0.52
2023-09-15T12:54:29.742Z,0.55
2023-09-15T12:57:09.702Z,0.49
2023-09-15T12:59:49.389Z,0.49
2023-09-15T13:02:30.118Z,0.58
2023-09-15T13:05:15.369Z,0.45
2023-09-15T13:07:54.781Z,0.52
2023-09-15T13:10:36.452Z,0.51
2023-09-15T13:13:17.202Z,0.53
2023-09-15T13:15:56.769Z,0.49
2023-09-15T13:18:36.138Z,0.54
2023-09-15T13:21:20.755Z,0.48
2023-09-15T13:24:00.091Z,0.44
2023-09-15T13:26:39.620Z,0.40
2023-09-15T13:29:18.946Z,0.49
2023-09-15T13:31:58.335Z,0.56
2023-09-15T13:34:37.678Z,0.47
2023-09-15T13:37:22.092Z,2.33
2023-09-15T13:40:01.583Z,0.77
2023-09-15T13:42:42.469Z,0.44
2023-09-15T13:45:21.940Z,0.54
2023-09-15T13:48:01.356Z,0.56
2023-09-15T13:50:40.709Z,0.51
2023-09-15T13:53:25.307Z,0.51
2023-09-15T13:56:05.208Z,0.53
2023-09-15T13:58:46.807Z,0.55
2023-09-15T14:01:27.562Z,0.41
2023-09-15T14:04:06.989Z,0.48
2023-09-15T14:06:46.428Z,0.43
2023-09-15T14:09:30.878Z,0.47
2023-09-15T14:12:11.196Z,0.40
2023-09-15T14:14:50.543Z,0.48
2023-09-15T14:17:30.393Z,0.63
2023-09-15T14:20:09.878Z,0.57
2023-09-15T14:22:49.321Z,0.45
2023-09-15T14:25:34.212Z,0.57
2023-09-15T14:28:14.213Z,0.48
2023-09-15T14:30:59.778Z,0.59
2023-09-15T14:33:39.106Z,0.57
2023-09-15T14:36:18.865Z,0.53
2023-09-15T14:38:59.091Z,0.51
2023-09-15T14:41:44.272Z,0.46
2023-09-15T14:44:28.290Z,0.57
2023-09-15T14:47:07.597Z,0.53
2023-09-15T14:49:46.956Z,0.54
2023-09-15T14:52:27.229Z,0.50
2023-09-15T14:55:06.505Z,0.52
2023-09-15T14:57:50.949Z,0.58
2023-09-15T15:00:31.958Z,0.57
2023-09-15T15:03:11.958Z,0.49
2023-09-15T15:05:51.624Z,0.64
2023-09-15T15:08:31.015Z,0.51
2023-09-15T15:11:11.354Z,0.49
2023-09-15T15:13:55.785Z,0.51
2023-09-15T15:16:35.364Z,0.40
2023-09-15T15:19:14.911Z,0.55
2023-09-15T15:21:54.509Z,0.48
2023-09-15T15:24:33.900Z,0.68
2023-09-15T15:27:14.258Z,0.43
2023-09-15T15:29:58.935Z,0.44
2023-09-15T15:32:39.357Z,0.44
2023-09-15T15:35:18.711Z,0.62
2023-09-15T15:37:58.906Z,0.57
2023-09-15T15:40:40.210Z,0.53
2023-09-15T15:43:19.872Z,0.46
2023-09-15T15:46:08.321Z,0.45
2023-09-15T15:48:48.222Z,0.65
2023-09-15T15:51:29.667Z,0.72
2023-09-15T15:54:09.041Z,0.65
2023-09-15T15:56:49.016Z,0.63
2023-09-15T15:59:28.360Z,0.45
2023-09-15T16:02:15.436Z,0.48
2023-09-15T16:04:54.746Z,0.49
2023-09-15T16:07:34.120Z,0.50
2023-09-15T16:10:14.812Z,0.45
2023-09-15T16:12:54.182Z,0.59
2023-09-15T16:15:34.008Z,0.53
2023-09-15T16:21:01.931Z,0.52
2023-09-15T16:23:41.300Z,0.46
2023-09-15T16:26:20.708Z,0.49
2023-09-15T16:29:00.065Z,0.56
2023-09-15T16:31:39.597Z,0.49
2023-09-15T16:34:24.087Z,0.54
2023-09-15T16:37:03.354Z,0.51
2023-09-15T16:39:42.872Z,0.52
2023-09-15T16:42:22.268Z,0.58
2023-09-15T16:45:04.801Z,0.62
2023-09-15T16:47:44.157Z,0.46
2023-09-15T16:50:29.324Z,0.68
2023-09-15T16:53:08.611Z,0.68
2023-09-15T16:55:48.529Z,0.66
2023-09-15T16:58:27.904Z,0.64
2023-09-15T17:01:08.378Z,0.74
2023-09-15T17:03:47.930Z,0.73
2023-09-15T17:06:33.410Z,0.58
2023-09-15T17:09:12.847Z,0.79
2023-09-15T17:11:52.514Z,0.65
2023-09-15T17:14:31.794Z,0.60
2023-09-15T17:17:11.421Z,0.65
2023-09-15T17:19:51.099Z,0.59
2023-09-15T17:22:35.531Z,0.56
2023-09-15T17:25:16.345Z,0.62
2023-09-15T17:27:55.844Z,0.78
2023-09-15T17:30:35.247Z,0.68
2023-09-15T17:33:14.879Z,0.65
2023-09-15T17:35:56.348Z,0.75
2023-09-15T17:38:42.914Z,0.61
2023-09-15T17:41:22.644Z,0.53
2023-09-15T17:44:02.213Z,0.72
2023-09-15T17:46:41.636Z,0.70
2023-09-15T17:49:20.960Z,0.63
2023-09-15T17:52:00.473Z,0.56
2023-09-15T17:54:44.967Z,0.71
2023-09-15T17:57:25.078Z,0.63
2023-09-15T18:00:05.998Z,0.59
2023-09-15T18:02:45.422Z,0.85
2023-09-15T18:05:25.194Z,0.66
2023-09-15T18:08:05.231Z,0.67
2023-09-15T18:10:49.910Z,0.62
2023-09-15T18:13:29.710Z,0.73
2023-09-15T18:16:09.680Z,0.77
2023-09-15T18:18:49.245Z,0.70
2023-09-15T18:21:28.789Z,0.70
2023-09-15T18:24:08.415Z,0.59
2023-09-15T18:26:52.757Z,0.73
2023-09-15T18:29:32.131Z,0.62
2023-09-15T18:32:11.946Z,0.75
2023-09-15T18:34:51.280Z,0.92
2023-09-15T18:37:30.753Z,0.73
2023-09-15T18:40:13.153Z,0.84
2023-09-15T18:42:57.904Z,0.63
2023-09-15T18:45:37.945Z,0.73
2023-09-15T18:48:17.609Z,0.72
2023-09-15T18:50:56.970Z,0.64
2023-09-15T18:53:36.341Z,0.90
2023-09-15T18:56:15.701Z,0.82
2023-09-15T18:59:00.183Z,0.66
2023-09-15T19:01:39.569Z,0.91
2023-09-15T19:04:19.001Z,0.77
2023-09-15T19:06:58.746Z,0.69
2023-09-15T19:09:38.123Z,0.78
2023-09-15T19:12:17.774Z,0.76
2023-09-15T19:15:02.167Z,0.70
2023-09-15T19:17:41.720Z,0.72
2023-09-15T19:20:21.257Z,0.64
2023-09-15T19:23:02.975Z,0.71
2023-09-15T19:25:42.466Z,0.73
2023-09-15T19:28:21.979Z,0.83
2023-09-15T19:31:07.878Z,0.63
2023-09-15T19:33:47.391Z,0.58
2023-09-15T19:36:26.903Z,0.71
2023-09-15T19:39:06.895Z,0.74
2023-09-15T19:41:46.355Z,0.69
2023-09-15T19:44:25.663Z,0.75
2023-09-15T19:47:10.554Z,0.65
2023-09-15T19:49:49.800Z,0.76
2023-09-15T19:52:31.887Z,0.81
2023-09-15T19:55:12.406Z,0.79
2023-09-15T19:57:57.379Z,0.79
2023-09-15T20:00:37.913Z,0.82
2023-09-15T20:03:22.808Z,0.87
2023-09-15T20:06:04.757Z,0.74
2023-09-15T20:08:44.085Z,0.71
2023-09-15T20:11:23.416Z,0.76
2023-09-15T20:14:03.137Z,0.85
2023-09-15T20:16:42.529Z,0.78
2023-09-15T20:19:27.825Z,0.79
2023-09-15T20:22:07.100Z,0.80
2023-09-15T20:24:46.730Z,0.87
2023-09-15T20:27:26.077Z,0.92
2023-09-15T20:30:05.420Z,1.03
2023-09-15T20:32:44.819Z,0.79
2023-09-15T20:35:29.233Z,0.88
2023-09-15T20:38:09.402Z,0.93
2023-09-15T20:40:49.231Z,0.83
2023-09-15T20:43:28.647Z,0.94
2023-09-15T20:46:08.016Z,0.78
2023-09-15T20:48:47.504Z,0.85
2023-09-15T20:51:32.104Z,0.76
2023-09-15T20:54:11.962Z,0.94
2023-09-15T20:56:51.287Z,0.84
2023-09-15T20:59:30.768Z,0.94
2023-09-15T21:02:10.090Z,0.79
2023-09-15T21:04:50.163Z,0.87
2023-09-15T21:07:34.556Z,0.91
2023-09-15T21:10:15.045Z,0.72
2023-09-15T21:12:55.712Z,0.89
2023-09-15T21:15:35.076Z,0.84
2023-09-15T21:18:14.830Z,0.93
2023-09-15T21:20:54.516Z,0.92
2023-09-15T21:23:39.051Z,0.86
2023-09-15T21:26:18.541Z,0.73
2023-09-15T21:28:57.858Z,0.81
2023-09-15T21:31:37.674Z,0.78
2023-09-15T21:34:17.039Z,0.91
2023-09-15T21:36:56.379Z,0.90
2023-09-15T21:39:41.560Z,0.93
2023-09-15T21:42:21.016Z,1.05
2023-09-15T21:45:00.420Z,0.80
2023-09-15T21:47:39.798Z,0.87
2023-09-15T21:50:19.121Z,0.90
2023-09-15T21:52:58.665Z,0.83
2023-09-15T21:55:43.606Z,0.92
2023-09-15T21:58:23.542Z,0.79
2023-09-15T22:01:02.908Z,0.97
2023-09-15T22:03:42.388Z,0.88
2023-09-15T22:06:22.205Z,1.01
2023-09-15T22:09:01.676Z,0.99
2023-09-15T22:11:46.195Z,1.09
2023-09-15T22:14:26.164Z,0.90
2023-09-15T22:17:05.889Z,0.99
2023-09-15T22:19:45.323Z,0.96
2023-09-15T22:22:24.656Z,0.96
2023-09-15T22:25:04.027Z,0.96
2023-09-15T22:27:49.885Z,1.04
2023-09-15T22:30:29.815Z,1.02
2023-09-15T22:33:09.590Z,0.89
2023-09-15T22:35:49.521Z,1.07
2023-09-15T22:38:28.953Z,0.88
2023-09-15T22:41:17.418Z,0.94
2023-09-15T22:44:06.176Z,1.06
2023-09-15T22:46:46.228Z,0.92
2023-09-15T22:49:25.845Z,1.01
2023-09-15T22:52:06.809Z,0.99
2023-09-15T22:54:46.465Z,1.01
2023-09-15T22:57:25.956Z,0.99
2023-09-15T23:00:15.071Z,0.98
2023-09-15T23:02:56.437Z,0.98
2023-09-15T23:05:35.868Z,1.01
2023-09-15T23:08:15.255Z,1.06
2023-09-15T23:10:54.603Z,0.94
2023-09-15T23:13:33.972Z,1.07
2023-09-15T23:16:18.484Z,1.25
2023-09-15T23:18:58.274Z,1.06
2023-09-15T23:21:37.655Z,1.11
2023-09-15T23:24:17.197Z,0.94
2023-09-15T23:26:56.465Z,1.05
2023-09-15T23:29:35.888Z,1.01
2023-09-15T23:32:20.304Z,1.05
2023-09-15T23:34:59.764Z,1.15
2023-09-15T23:37:40.151Z,1.15
2023-09-15T23:40:19.792Z,1.15
2023-09-15T23:42:59.196Z,1.19
2023-09-15T23:45:38.661Z,1.28
2023-09-15T23:48:23.505Z,1.20
2023-09-15T23:51:02.878Z,1.22
2023-09-15T23:53:42.582Z,1.11
2023-09-15T23:56:21.937Z,1.18
2023-09-15T23:59:01.429Z,1.60
